createdAt,value
2019-01-26T00:01:05.037Z,100227.91
2019-01-26T00:02:13.547Z,100226.64
2019-01-26T00:03:20.213Z,100222.81
2019-01-26T00:04:26.857Z,100230.84
2019-01-26T00:05:33.521Z,100224.08
2019-01-26T00:06:40.293Z,100224.08
2019-01-26T00:07:47.277Z,100227.48
2019-01-26T00:08:53.993Z,100217.76
2019-01-26T00:10:01.033Z,100223.64
2019-01-26T00:11:08.232Z,100223.64
2019-01-26T00:12:14.897Z,100224.91
2019-01-26T00:13:21.640Z,100222.38
2019-01-26T00:14:28.286Z,100226.58
2019-01-26T00:15:35.130Z,100227.84
2019-01-26T00:16:42.016Z,100226.58
2019-01-26T00:17:48.693Z,100221.08
2019-01-26T00:18:55.744Z,100222.77
2019-01-26T00:20:02.449Z,100229.50
2019-01-26T00:21:09.113Z,100224.00
2019-01-26T00:22:16.020Z,100223.17
2019-01-26T00:23:22.993Z,100227.36
2019-01-26T00:24:29.727Z,100226.52
2019-01-26T00:25:36.418Z,100229.05
2019-01-26T00:26:43.117Z,100226.52
2019-01-26T00:27:49.971Z,100231.16
2019-01-26T00:28:56.666Z,100227.31
2019-01-26T00:30:03.386Z,100232.38
2019-01-26T00:31:10.098Z,100220.15
2019-01-26T00:32:17.159Z,100222.69
2019-01-26T00:33:24.522Z,100223.52
2019-01-26T00:34:31.172Z,100224.78
2019-01-26T00:35:38.299Z,100224.38
2019-01-26T00:36:45.272Z,100227.70
2019-01-26T00:37:51.949Z,100228.09
2019-01-26T00:38:58.685Z,100228.53
2019-01-26T00:40:06.848Z,100221.81
2019-01-26T00:41:13.826Z,100220.11
2019-01-26T00:42:20.952Z,100220.55
2019-01-26T00:43:27.669Z,100219.28
2019-01-26T00:44:34.402Z,100221.81
2019-01-26T00:45:41.454Z,100214.20
2019-01-26T00:46:48.202Z,100209.54
2019-01-26T00:47:55.197Z,100209.14
2019-01-26T00:49:02.170Z,100212.08
2019-01-26T00:50:09.682Z,100205.74
2019-01-26T00:51:17.333Z,100206.17
2019-01-26T00:52:24.399Z,100203.59
2019-01-26T00:53:31.445Z,100214.59
2019-01-26T00:54:38.149Z,100201.06
2019-01-26T00:55:45.082Z,100203.15
2019-01-26T00:56:52.135Z,100201.48
2019-01-26T00:57:58.862Z,100199.34
2019-01-26T00:59:05.669Z,100201.45
2019-01-26T01:00:15.651Z,100198.52
2019-01-26T01:01:22.331Z,100195.98
2019-01-26T01:02:29.596Z,100194.28
2019-01-26T01:03:36.422Z,100195.54
2019-01-26T01:04:43.104Z,100200.17
2019-01-26T01:05:49.822Z,100197.63
2019-01-26T01:06:56.577Z,100194.66
2019-01-26T01:08:03.235Z,100194.27
2019-01-26T01:09:11.197Z,100192.95
2019-01-26T01:10:19.145Z,100193.39
2019-01-26T01:11:25.851Z,100189.59
2019-01-26T01:12:32.681Z,100192.55
2019-01-26T01:13:39.893Z,100196.31
2019-01-26T01:14:46.571Z,100195.05
2019-01-26T01:15:53.638Z,100185.78
2019-01-26T01:17:00.899Z,100183.25
2019-01-26T01:18:07.989Z,100183.25
2019-01-26T01:19:14.650Z,100181.11
2019-01-26T01:20:22.125Z,100179.84
2019-01-26T01:21:29.358Z,100173.51
2019-01-26T01:22:36.109Z,100167.61
2019-01-26T01:23:43.330Z,100165.91
2019-01-26T01:24:50.480Z,100166.34
2019-01-26T01:25:57.184Z,100164.20
2019-01-26T01:27:03.902Z,100166.73
2019-01-26T01:28:10.599Z,100162.53
2019-01-26T01:29:17.320Z,100163.37
2019-01-26T01:30:24.261Z,100170.52
2019-01-26T01:31:31.273Z,100168.42
2019-01-26T01:32:37.957Z,100162.53
2019-01-26T01:33:44.671Z,100165.47
2019-01-26T01:34:51.331Z,100168.83
2019-01-26T01:35:58.101Z,100166.73
2019-01-26T01:37:05.108Z,100164.19
2019-01-26T01:38:11.834Z,100164.61
2019-01-26T01:39:18.897Z,100165.02
2019-01-26T01:40:25.664Z,100167.53
2019-01-26T01:41:32.354Z,100169.20
2019-01-26T01:42:39.043Z,100167.92
2019-01-26T01:43:46.064Z,100166.70
2019-01-26T01:44:52.833Z,100173.03
2019-01-26T01:45:59.527Z,100171.73
2019-01-26T01:47:06.174Z,100173.86
2019-01-26T01:48:12.839Z,100175.14
2019-01-26T01:49:19.591Z,100169.19
2019-01-26T01:50:26.589Z,100178.05
2019-01-26T01:51:33.289Z,100174.25
2019-01-26T01:52:39.983Z,100180.14
2019-01-26T01:53:46.721Z,100180.56
2019-01-26T01:54:53.393Z,100183.09
2019-01-26T01:56:00.489Z,100168.73
2019-01-26T01:57:07.258Z,100169.56
2019-01-26T01:58:13.925Z,100172.09
2019-01-26T01:59:20.624Z,100169.55
2019-01-26T02:00:27.777Z,100167.84
2019-01-26T02:01:34.480Z,100162.77
2019-01-26T02:02:41.245Z,100161.92
2019-01-26T02:03:47.917Z,100158.95
2019-01-26T02:04:54.664Z,100158.94
2019-01-26T02:06:01.402Z,100156.41
2019-01-26T02:07:08.760Z,100155.53
2019-01-26T02:08:15.487Z,100158.05
2019-01-26T02:09:22.141Z,100153.81
2019-01-26T02:10:29.156Z,100155.08
2019-01-26T02:11:35.854Z,100153.80
2019-01-26T02:12:42.629Z,100155.44
2019-01-26T02:13:49.392Z,100152.06
2019-01-26T02:14:56.774Z,100157.95
2019-01-26T02:16:03.505Z,100159.22
2019-01-26T02:17:10.321Z,100152.83
2019-01-26T02:18:17.115Z,100157.89
2019-01-26T02:19:24.096Z,100153.24
2019-01-26T02:20:30.803Z,100154.47
2019-01-26T02:21:38.114Z,100148.53
2019-01-26T02:22:45.497Z,100149.81
2019-01-26T02:23:52.576Z,100146.41
2019-01-26T02:24:59.758Z,100140.94
2019-01-26T02:26:06.430Z,100142.60
2019-01-26T02:27:13.138Z,100137.94
2019-01-26T02:28:19.822Z,100137.92
2019-01-26T02:29:26.545Z,100131.99
2019-01-26T02:30:33.344Z,100133.23
2019-01-26T02:31:40.010Z,100124.78
2019-01-26T02:32:46.674Z,100126.44
2019-01-26T02:33:53.921Z,100124.34
2019-01-26T02:35:00.595Z,100123.47
2019-01-26T02:36:07.540Z,100114.59
2019-01-26T02:37:14.228Z,100119.21
2019-01-26T02:38:20.890Z,100115.45
2019-01-26T02:39:28.310Z,100117.94
2019-01-26T02:40:35.841Z,100117.91
2019-01-26T02:41:42.714Z,100123.81
2019-01-26T02:42:49.751Z,100121.28
2019-01-26T02:43:56.402Z,100114.08
2019-01-26T02:45:03.113Z,100115.28
2019-01-26T02:46:09.806Z,100126.65
2019-01-26T02:47:16.529Z,100124.07
2019-01-26T02:48:23.579Z,100124.49
2019-01-26T02:49:30.625Z,100129.12
2019-01-26T02:50:37.304Z,100135.00
2019-01-26T02:51:44.309Z,100129.48
2019-01-26T02:52:51.170Z,100131.55
2019-01-26T02:53:57.915Z,100127.75
2019-01-26T02:55:05.575Z,100131.09
2019-01-26T02:56:12.586Z,100134.05
2019-01-26T02:57:19.233Z,100126.88
2019-01-26T02:58:26.306Z,100120.88
2019-01-26T02:59:32.966Z,100115.34
2019-01-26T03:00:39.679Z,100117.81
2019-01-26T03:01:46.548Z,100113.62
2019-01-26T03:02:53.585Z,100114.44
2019-01-26T03:04:00.343Z,100116.47
2019-01-26T03:05:08.744Z,100122.76
2019-01-26T03:06:15.764Z,100117.69
2019-01-26T03:07:22.986Z,100116.02
2019-01-26T03:08:29.689Z,100116.81
2019-01-26T03:09:36.536Z,100107.05
2019-01-26T03:10:43.509Z,100102.44
2019-01-26T03:11:50.486Z,100096.89
2019-01-26T03:12:57.203Z,100095.12
2019-01-26T03:14:03.844Z,100098.95
2019-01-26T03:15:13.405Z,100095.59
2019-01-26T03:16:20.123Z,100096.41
2019-01-26T03:17:27.089Z,100096.30
2019-01-26T03:18:34.106Z,100092.94
2019-01-26T03:19:40.748Z,100094.20
2019-01-26T03:20:47.983Z,100087.03
2019-01-26T03:21:54.984Z,100091.63
2019-01-26T03:23:02.079Z,100092.84
2019-01-26T03:24:09.189Z,100089.48
2019-01-26T03:25:16.788Z,100090.27
2019-01-26T03:26:23.464Z,100082.66
2019-01-26T03:27:30.453Z,100088.16
2019-01-26T03:28:37.108Z,100088.52
2019-01-26T03:29:43.829Z,100083.42
2019-01-26T03:30:50.810Z,100083.41
2019-01-26T03:31:57.496Z,100078.80
2019-01-26T03:33:04.168Z,100086.42
2019-01-26T03:34:10.869Z,100082.17
2019-01-26T03:35:18.093Z,100077.53
2019-01-26T03:36:24.829Z,100080.51
2019-01-26T03:37:31.483Z,100075.45
2019-01-26T03:38:38.549Z,100075.43
2019-01-26T03:39:45.545Z,100075.03
2019-01-26T03:40:53.215Z,100078.38
2019-01-26T03:41:59.923Z,100073.31
2019-01-26T03:43:06.992Z,100068.67
2019-01-26T03:44:13.983Z,100070.76
2019-01-26T03:45:21.009Z,100071.16
2019-01-26T03:46:27.756Z,100071.57
2019-01-26T03:47:35.074Z,100071.16
2019-01-26T03:48:41.792Z,100067.81
2019-01-26T03:49:48.464Z,100073.73
2019-01-26T03:50:55.171Z,100072.47
2019-01-26T03:52:01.823Z,100064.39
2019-01-26T03:53:08.529Z,100066.91
2019-01-26T03:54:15.185Z,100071.09
2019-01-26T03:55:23.100Z,100065.61
2019-01-26T03:56:29.954Z,100061.80
2019-01-26T03:57:37.230Z,100059.73
2019-01-26T03:58:44.206Z,100056.30
2019-01-26T03:59:51.216Z,100059.67
2019-01-26T04:00:58.410Z,100064.36
2019-01-26T04:02:11.278Z,100059.62
2019-01-26T04:03:17.975Z,100063.44
2019-01-26T04:04:25.201Z,100057.11
2019-01-26T04:05:31.936Z,100055.84
2019-01-26T04:06:38.592Z,100054.18
2019-01-26T04:07:45.328Z,100053.73
2019-01-26T04:08:52.090Z,100058.80
2019-01-26T04:09:58.823Z,100054.97
2019-01-26T04:11:05.539Z,100056.63
2019-01-26T04:12:12.287Z,100056.17
2019-01-26T04:13:18.952Z,100051.95
2019-01-26T04:14:26.192Z,100050.70
2019-01-26T04:15:33.074Z,100048.16
2019-01-26T04:16:39.792Z,100049.82
2019-01-26T04:17:46.755Z,100050.24
2019-01-26T04:18:53.941Z,100046.80
2019-01-26T04:20:00.669Z,100045.94
2019-01-26T04:21:07.381Z,100046.34
2019-01-26T04:22:14.122Z,100045.91
2019-01-26T04:23:21.425Z,100040.30
2019-01-26T04:24:28.841Z,100045.40
2019-01-26T04:25:36.078Z,100041.18
2019-01-26T04:26:42.984Z,100043.67
2019-01-26T04:27:49.635Z,100040.30
2019-01-26T04:28:56.315Z,100041.59
2019-01-26T04:30:03.041Z,100043.26
2019-01-26T04:31:09.732Z,100038.50
2019-01-26T04:32:16.457Z,100040.22
2019-01-26T04:33:23.393Z,100034.67
2019-01-26T04:34:30.136Z,100026.98
2019-01-26T04:35:36.838Z,100020.28
2019-01-26T04:36:43.918Z,100014.73
2019-01-26T04:37:50.596Z,100017.20
2019-01-26T04:38:57.287Z,100020.58
2019-01-26T04:40:04.034Z,100017.11
2019-01-26T04:41:10.683Z,100020.52
2019-01-26T04:42:17.358Z,100010.72
2019-01-26T04:43:24.464Z,100016.16
2019-01-26T04:44:31.146Z,100011.50
2019-01-26T04:45:38.213Z,100011.03
2019-01-26T04:46:45.035Z,100013.21
2019-01-26T04:47:51.708Z,100011.87
2019-01-26T04:48:58.393Z,100012.27
2019-01-26T04:50:07.001Z,100008.01
2019-01-26T04:51:13.782Z,100008.42
2019-01-26T04:52:20.508Z,100010.88
2019-01-26T04:53:27.589Z,100006.98
2019-01-26T04:54:34.603Z,100005.72
2019-01-26T04:55:41.576Z,100003.09
2019-01-26T04:56:48.228Z,100006.08
2019-01-26T04:57:55.233Z,100003.95
2019-01-26T04:59:01.950Z,100005.25
2019-01-26T05:00:14.934Z,100000.50
2019-01-26T05:01:21.941Z,99997.47
2019-01-26T05:02:29.293Z,99995.33
2019-01-26T05:03:36.007Z,99991.53
2019-01-26T05:04:43.316Z,99990.60
2019-01-26T05:05:50.342Z,99991.41
2019-01-26T05:06:57.256Z,99988.86
2019-01-26T05:08:03.925Z,99986.78
2019-01-26T05:09:11.199Z,99988.38
2019-01-26T05:10:19.103Z,99986.16
2019-01-26T05:11:25.762Z,99987.88
2019-01-26T05:12:32.760Z,99986.61
2019-01-26T05:13:39.752Z,99989.55
2019-01-26T05:14:47.501Z,99981.75
2019-01-26T05:15:54.175Z,99985.63
2019-01-26T05:17:01.214Z,99978.09
2019-01-26T05:18:08.609Z,99988.61
2019-01-26T05:19:15.541Z,99986.06
2019-01-26T05:20:25.291Z,99982.27
2019-01-26T05:21:31.972Z,99987.72
2019-01-26T05:22:38.630Z,99991.52
2019-01-26T05:23:45.899Z,99985.59
2019-01-26T05:24:52.598Z,99997.05
2019-01-26T05:25:59.280Z,99988.91
2019-01-26T05:27:06.068Z,99988.45
2019-01-26T05:28:12.904Z,99979.96
2019-01-26T05:29:19.589Z,99979.68
2019-01-26T05:30:29.794Z,99978.63
2019-01-26T05:31:36.573Z,99976.09
2019-01-26T05:32:43.319Z,99973.94
2019-01-26T05:33:50.190Z,99981.17
2019-01-26T05:34:57.190Z,99980.79
2019-01-26T05:36:03.853Z,99980.38
2019-01-26T05:37:11.031Z,99973.55
2019-01-26T05:38:17.681Z,99975.20
2019-01-26T05:39:24.408Z,99975.06
2019-01-26T05:40:31.078Z,99971.69
2019-01-26T05:41:37.819Z,99975.06
2019-01-26T05:42:44.465Z,99972.16
2019-01-26T05:43:51.482Z,99981.52
2019-01-26T05:44:58.514Z,99969.20
2019-01-26T05:46:05.407Z,99980.16
2019-01-26T05:47:12.498Z,99969.92
2019-01-26T05:48:19.299Z,99971.25
2019-01-26T05:49:26.028Z,99975.45
2019-01-26T05:50:32.677Z,99971.64
2019-01-26T05:51:39.339Z,99978.88
2019-01-26T05:52:46.319Z,99975.02
2019-01-26T05:53:53.060Z,99973.33
2019-01-26T05:54:59.783Z,99972.02
2019-01-26T05:56:07.394Z,99972.89
2019-01-26T05:57:14.381Z,99973.74
2019-01-26T05:58:21.012Z,99975.43
2019-01-26T05:59:28.301Z,99976.23
2019-01-26T06:00:36.327Z,99977.20
2019-01-26T06:01:43.707Z,99972.89
2019-01-26T06:02:50.454Z,99978.41
2019-01-26T06:03:57.285Z,99971.55
2019-01-26T06:05:04.313Z,99972.33
2019-01-26T06:06:11.388Z,99968.13
2019-01-26T06:07:18.359Z,99963.51
2019-01-26T06:08:25.039Z,99966.47
2019-01-26T06:09:32.105Z,99966.05
2019-01-26T06:10:38.793Z,99963.89
2019-01-26T06:11:45.499Z,99961.82
2019-01-26T06:12:52.315Z,99967.71
2019-01-26T06:13:59.000Z,99970.17
2019-01-26T06:15:06.989Z,99966.73
2019-01-26T06:16:13.651Z,99966.21
2019-01-26T06:17:20.777Z,99964.28
2019-01-26T06:18:27.912Z,99958.28
2019-01-26T06:19:34.884Z,99966.69
2019-01-26T06:20:41.844Z,99962.15
2019-01-26T06:21:48.831Z,99968.45
2019-01-26T06:22:55.765Z,99964.16
2019-01-26T06:24:02.497Z,99968.28
2019-01-26T06:25:11.213Z,99965.88
2019-01-26T06:26:18.053Z,99968.28
2019-01-26T06:27:24.761Z,99965.86
2019-01-26T06:28:31.440Z,99966.71
2019-01-26T06:29:39.215Z,99967.02
2019-01-26T06:30:46.361Z,99969.26
2019-01-26T06:31:53.068Z,99973.02
2019-01-26T06:33:00.279Z,99968.73
2019-01-26T06:34:06.974Z,99967.92
2019-01-26T06:35:14.230Z,99967.76
2019-01-26T06:36:21.167Z,99974.62
2019-01-26T06:37:27.807Z,99976.22
2019-01-26T06:38:34.779Z,99969.03
2019-01-26T06:39:42.374Z,99963.44
2019-01-26T06:40:49.066Z,99970.25
2019-01-26T06:41:55.809Z,99970.69
2019-01-26T06:43:02.592Z,99973.32
2019-01-26T06:44:09.598Z,99971.99
2019-01-26T06:45:19.010Z,99976.19
2019-01-26T06:46:25.689Z,99980.90
2019-01-26T06:47:32.656Z,99976.58
2019-01-26T06:48:40.067Z,99979.09
2019-01-26T06:49:47.118Z,99976.16
2019-01-26T06:50:54.197Z,99970.60
2019-01-26T06:52:01.175Z,99965.59
2019-01-26T06:53:07.837Z,99971.63
2019-01-26T06:54:14.534Z,99972.19
2019-01-26T06:55:21.308Z,99966.62
2019-01-26T06:56:28.404Z,99966.54
2019-01-26T06:57:35.067Z,99973.32
2019-01-26T06:58:42.347Z,99971.55
2019-01-26T06:59:49.028Z,99967.31
2019-01-26T07:00:55.922Z,99969.03
2019-01-26T07:02:02.926Z,99971.84
2019-01-26T07:03:09.646Z,99970.27
2019-01-26T07:04:25.001Z,99967.08
2019-01-26T07:05:49.287Z,99965.92
2019-01-26T07:07:11.799Z,99976.64
2019-01-26T07:08:20.004Z,99975.34
2019-01-26T07:09:27.597Z,99972.67
2019-01-26T07:10:34.321Z,99976.11
2019-01-26T07:11:41.021Z,99972.31
2019-01-26T07:12:48.209Z,99973.65
2019-01-26T07:13:55.606Z,99976.22
2019-01-26T07:15:02.271Z,99974.89
2019-01-26T07:16:09.303Z,99972.38
2019-01-26T07:17:16.002Z,99962.78
2019-01-26T07:18:22.845Z,99972.91
2019-01-26T07:19:29.550Z,99969.53
2019-01-26T07:20:36.245Z,99970.36
2019-01-26T07:21:43.005Z,99972.52
2019-01-26T07:22:49.844Z,99967.81
2019-01-26T07:23:57.047Z,99976.78
2019-01-26T07:25:03.840Z,99967.73
2019-01-26T07:26:10.802Z,99976.61
2019-01-26T07:27:17.498Z,99970.72
2019-01-26T07:28:24.759Z,99974.52
2019-01-26T07:29:31.489Z,99976.99
2019-01-26T07:30:38.531Z,99980.10
2019-01-26T07:31:45.229Z,99982.14
2019-01-26T07:32:52.142Z,99981.59
2019-01-26T07:33:59.151Z,99979.81
2019-01-26T07:35:06.732Z,99977.70
2019-01-26T07:36:13.376Z,99982.47
2019-01-26T07:37:20.107Z,99973.53
2019-01-26T07:38:27.145Z,99982.30
2019-01-26T07:39:34.204Z,99989.14
2019-01-26T07:40:41.373Z,99984.99
2019-01-26T07:41:48.085Z,99977.38
2019-01-26T07:42:54.818Z,99979.45
2019-01-26T07:44:02.223Z,99989.34
2019-01-26T07:45:12.099Z,99985.87
2019-01-26T07:46:18.793Z,99988.39
2019-01-26T07:47:25.463Z,99987.89
2019-01-26T07:48:32.954Z,99988.37
2019-01-26T07:49:39.707Z,99992.66
2019-01-26T07:50:46.725Z,99984.55
2019-01-26T07:51:53.609Z,99987.65
2019-01-26T07:53:00.569Z,99988.59
2019-01-26T07:54:07.510Z,99989.72
2019-01-26T07:55:14.731Z,99992.66
2019-01-26T07:56:21.709Z,99993.27
2019-01-26T07:57:28.705Z,99986.97
2019-01-26T07:58:35.963Z,99992.36
2019-01-26T07:59:42.967Z,99988.56
2019-01-26T08:00:49.663Z,99985.22
2019-01-26T08:01:58.230Z,99988.15
2019-01-26T08:03:05.716Z,99988.13
2019-01-26T08:04:12.412Z,99987.23
2019-01-26T08:05:19.533Z,99984.72
2019-01-26T08:06:26.552Z,99987.67
2019-01-26T08:07:34.760Z,99987.73
2019-01-26T08:08:41.498Z,99988.56
2019-01-26T08:09:48.207Z,99992.05
2019-01-26T08:10:55.204Z,99989.04
2019-01-26T08:12:02.081Z,99989.81
2019-01-26T08:13:09.595Z,99988.42
2019-01-26T08:14:16.447Z,99989.22
2019-01-26T08:15:30.598Z,99985.34
2019-01-26T08:16:37.880Z,99991.38
2019-01-26T08:17:44.836Z,99990.97
2019-01-26T08:18:52.583Z,99991.11
2019-01-26T08:19:59.464Z,99986.02
2019-01-26T08:21:07.521Z,99996.06
2019-01-26T08:22:14.274Z,99995.67
2019-01-26T08:23:21.408Z,99991.41
2019-01-26T08:24:28.719Z,99989.61
2019-01-26T08:25:35.897Z,99988.02
2019-01-26T08:26:43.485Z,99993.91
2019-01-26T08:27:50.212Z,99996.15
2019-01-26T08:28:56.846Z,99993.48
2019-01-26T08:30:03.835Z,99997.72
2019-01-26T08:31:11.799Z,99994.31
2019-01-26T08:32:19.048Z,99995.95
2019-01-26T08:33:26.063Z,99993.93
2019-01-26T08:34:33.260Z,100001.57
2019-01-26T08:35:40.206Z,100003.78
2019-01-26T08:36:47.248Z,99996.03
2019-01-26T08:37:54.053Z,99998.11
2019-01-26T08:39:00.715Z,99997.86
2019-01-26T08:40:08.889Z,99996.50
2019-01-26T08:41:15.941Z,99999.05
2019-01-26T08:42:23.241Z,99999.97
2019-01-26T08:43:30.724Z,100005.44
2019-01-26T08:44:37.822Z,99998.97
2019-01-26T08:45:44.941Z,99998.58
2019-01-26T08:46:52.255Z,100003.67
2019-01-26T08:47:59.487Z,99998.11
2019-01-26T08:49:06.440Z,99998.12
2019-01-26T08:50:19.351Z,100003.28
2019-01-26T08:51:26.475Z,100004.06
2019-01-26T08:52:34.792Z,99992.92
2019-01-26T08:53:41.937Z,100004.89
2019-01-26T08:54:48.816Z,100000.37
2019-01-26T08:55:56.683Z,100000.33
2019-01-26T08:57:03.811Z,99997.42
2019-01-26T08:58:10.665Z,99992.71
2019-01-26T08:59:18.209Z,99990.55
2019-01-26T09:00:29.801Z,99992.27
2019-01-26T09:01:37.920Z,99993.52
2019-01-26T09:03:10.070Z,99998.58
2019-01-26T09:04:21.246Z,99999.05
2019-01-26T09:05:29.796Z,99992.21
2019-01-26T09:06:40.075Z,99992.74
2019-01-26T09:07:46.930Z,99997.92
2019-01-26T09:08:53.590Z,99992.39
2019-01-26T09:10:00.323Z,99996.17
2019-01-26T09:11:07.634Z,99994.91
2019-01-26T09:12:14.657Z,99998.25
2019-01-26T09:13:21.344Z,99999.11
2019-01-26T09:14:28.564Z,99995.09
2019-01-26T09:15:35.807Z,99998.97
2019-01-26T09:16:43.235Z,99993.31
2019-01-26T09:17:50.552Z,99998.52
2019-01-26T09:18:57.496Z,100000.18
2019-01-26T09:20:05.480Z,100001.55
2019-01-26T09:21:13.191Z,100004.86
2019-01-26T09:22:20.772Z,100005.33
2019-01-26T09:23:27.598Z,100010.03
2019-01-26T09:24:35.140Z,100004.44
2019-01-26T09:25:42.350Z,100001.89
2019-01-26T09:26:49.195Z,99999.49
2019-01-26T09:27:56.133Z,100003.81
2019-01-26T09:29:03.289Z,100004.06
2019-01-26T09:30:10.865Z,99999.83
2019-01-26T09:31:18.809Z,99996.83
2019-01-26T09:32:26.322Z,99997.33
2019-01-26T09:33:33.808Z,99998.55
2019-01-26T09:34:40.880Z,99994.67
2019-01-26T09:35:47.751Z,99998.49
2019-01-26T09:36:54.734Z,99996.75
2019-01-26T09:38:01.447Z,100002.31
2019-01-26T09:39:11.873Z,99994.20
2019-01-26T09:40:19.116Z,100001.81
2019-01-26T09:41:25.866Z,100001.81
2019-01-26T09:42:32.959Z,100008.59
2019-01-26T09:43:40.280Z,99996.16
2019-01-26T09:44:47.177Z,99995.80
2019-01-26T09:45:54.556Z,99992.92
2019-01-26T09:47:01.635Z,99999.30
2019-01-26T09:48:08.969Z,99993.70
2019-01-26T09:49:16.276Z,99997.52
2019-01-26T09:50:23.567Z,99994.55
2019-01-26T09:51:30.243Z,99995.86
2019-01-26T09:52:37.176Z,99994.17
2019-01-26T09:53:44.899Z,99985.91
2019-01-26T09:54:52.847Z,99992.66
2019-01-26T09:55:59.772Z,99988.99
2019-01-26T09:57:06.871Z,99994.61
2019-01-26T09:58:14.072Z,99986.47
2019-01-26T09:59:20.784Z,99987.69
2019-01-26T10:00:28.686Z,99982.62
2019-01-26T10:01:35.478Z,99989.02
2019-01-26T10:02:42.295Z,99991.45
2019-01-26T10:03:49.490Z,99991.30
2019-01-26T10:04:56.644Z,99990.44
2019-01-26T10:06:03.439Z,100000.34
2019-01-26T10:07:10.096Z,99992.34
2019-01-26T10:08:16.745Z,99993.73
2019-01-26T10:09:23.402Z,100006.81
2019-01-26T10:10:30.303Z,100004.30
2019-01-26T10:11:37.236Z,99997.88
2019-01-26T10:12:44.618Z,100005.07
2019-01-26T10:13:51.548Z,99999.53
2019-01-26T10:14:58.371Z,100004.98
2019-01-26T10:16:05.439Z,100005.04
2019-01-26T10:17:12.888Z,100002.47
2019-01-26T10:18:19.906Z,100007.59
2019-01-26T10:19:27.583Z,100002.44
2019-01-26T10:20:36.841Z,99998.59
2019-01-26T10:21:44.201Z,99998.14
2019-01-26T10:22:51.208Z,100000.13
2019-01-26T10:23:58.210Z,99998.03
2019-01-26T10:25:05.875Z,99995.59
2019-01-26T10:26:12.557Z,100000.34
2019-01-26T10:27:19.699Z,99996.59
2019-01-26T10:28:26.636Z,100004.62
2019-01-26T10:29:33.583Z,99993.58
2019-01-26T10:30:45.247Z,99994.80
2019-01-26T10:31:51.906Z,99994.37
2019-01-26T10:32:58.983Z,99993.20
2019-01-26T10:34:05.854Z,99988.91
2019-01-26T10:35:12.814Z,99991.75
2019-01-26T10:36:47.425Z,99992.58
2019-01-26T10:37:54.141Z,99989.62
2019-01-26T10:39:09.259Z,99990.83
2019-01-26T10:40:34.056Z,99985.70
2019-01-26T10:41:59.400Z,99982.98
2019-01-26T10:43:06.823Z,99980.11
2019-01-26T10:44:18.104Z,99983.09
2019-01-26T10:45:24.792Z,99984.38
2019-01-26T10:46:31.595Z,99981.00
2019-01-26T10:47:38.279Z,99975.84
2019-01-26T10:48:45.390Z,99974.60
2019-01-26T10:49:52.126Z,99975.02
2019-01-26T10:51:00.145Z,99968.05
2019-01-26T10:52:08.076Z,99968.80
2019-01-26T10:53:16.504Z,99966.25
2019-01-26T10:54:23.231Z,99972.32
2019-01-26T10:55:30.274Z,99973.15
2019-01-26T10:56:36.940Z,99970.45
2019-01-26T10:57:43.773Z,99971.45
2019-01-26T10:58:50.743Z,99963.11
2019-01-26T10:59:57.891Z,99965.69
2019-01-26T11:01:05.007Z,99961.88
2019-01-26T11:02:12.351Z,99965.16
2019-01-26T11:03:19.615Z,99964.20
2019-01-26T11:04:26.270Z,99963.56
2019-01-26T11:05:33.026Z,99965.57
2019-01-26T11:06:39.743Z,99963.50
2019-01-26T11:07:46.370Z,99954.70
2019-01-26T11:08:53.808Z,99957.25
2019-01-26T11:10:00.723Z,99955.92
2019-01-26T11:11:07.478Z,99950.05
2019-01-26T11:12:14.146Z,99954.80
2019-01-26T11:13:20.939Z,99955.15
2019-01-26T11:14:27.977Z,99956.02
2019-01-26T11:15:34.728Z,99952.37
2019-01-26T11:16:41.793Z,99949.38
2019-01-26T11:17:48.457Z,99948.55
2019-01-26T11:18:55.251Z,99942.95
2019-01-26T11:20:02.338Z,99950.89
2019-01-26T11:21:08.996Z,99945.86
2019-01-26T11:22:16.265Z,99938.16
2019-01-26T11:23:22.903Z,99945.32
2019-01-26T11:24:29.551Z,99939.05
2019-01-26T11:25:36.687Z,99933.59
2019-01-26T11:26:49.281Z,99939.52
2019-01-26T11:27:52.218Z,99933.56
2019-01-26T11:28:59.233Z,99931.87
2019-01-26T11:30:08.062Z,99934.45
2019-01-26T11:31:14.952Z,99933.21
2019-01-26T11:32:22.038Z,99931.55
2019-01-26T11:33:28.787Z,99936.17
2019-01-26T11:34:35.551Z,99927.23
2019-01-26T11:35:42.375Z,99929.87
2019-01-26T11:36:49.044Z,99930.34
2019-01-26T11:37:56.176Z,99929.09
2019-01-26T11:39:04.174Z,99928.72
2019-01-26T11:40:19.002Z,99930.02
2019-01-26T11:41:25.678Z,99925.73
2019-01-26T11:42:32.877Z,99924.42
2019-01-26T11:43:39.577Z,99927.33
2019-01-26T11:45:05.055Z,99926.05
2019-01-26T11:46:33.404Z,99921.84
2019-01-26T11:47:40.169Z,99918.06
2019-01-26T11:48:48.798Z,99919.72
2019-01-26T11:49:59.462Z,99919.78
2019-01-26T11:51:25.281Z,99919.63
2019-01-26T11:52:32.417Z,99919.16
2019-01-26T11:53:39.268Z,99913.27
2019-01-26T11:55:11.284Z,99910.69
2019-01-26T11:56:32.608Z,99910.71
2019-01-26T11:57:40.122Z,99907.16
2019-01-26T11:58:47.235Z,99905.97
2019-01-26T12:00:28.259Z,99907.34
2019-01-26T12:01:49.403Z,99901.33
2019-01-26T12:03:05.344Z,99901.30
2019-01-26T12:04:34.863Z,99906.48
2019-01-26T12:05:58.351Z,99904.32
2019-01-26T12:07:11.263Z,99897.13
2019-01-26T12:08:18.238Z,99905.62
2019-01-26T12:09:24.872Z,99898.72
2019-01-26T12:10:31.611Z,99906.55
2019-01-26T12:11:38.324Z,99890.80
2019-01-26T12:12:45.467Z,99895.15
2019-01-26T12:13:52.501Z,99894.38
2019-01-26T12:14:59.226Z,99896.03
2019-01-26T12:16:06.204Z,99893.43
2019-01-26T12:17:13.489Z,99889.61
2019-01-26T12:18:20.109Z,99890.00
2019-01-26T12:19:27.440Z,99882.09
2019-01-26T12:20:34.459Z,99885.09
2019-01-26T12:21:41.288Z,99887.22
2019-01-26T12:22:48.048Z,99886.33
2019-01-26T12:23:54.687Z,99887.72
2019-01-26T12:25:01.618Z,99886.06
2019-01-26T12:26:08.459Z,99873.84
2019-01-26T12:27:15.254Z,99881.89
2019-01-26T12:28:22.259Z,99880.59
2019-01-26T12:29:29.098Z,99881.06
2019-01-26T12:30:36.116Z,99879.70
2019-01-26T12:31:42.806Z,99883.55
2019-01-26T12:32:50.096Z,99871.71
2019-01-26T12:33:57.101Z,99875.91
2019-01-26T12:35:04.703Z,99870.89
2019-01-26T12:36:11.443Z,99868.43
2019-01-26T12:37:18.230Z,99869.26
2019-01-26T12:38:25.275Z,99859.52
2019-01-26T12:39:31.965Z,99864.97
2019-01-26T12:40:38.734Z,99860.77
2019-01-26T12:41:45.394Z,99862.89
2019-01-26T12:42:52.046Z,99861.69
2019-01-26T12:43:59.105Z,99851.09
2019-01-26T12:45:08.342Z,99856.21
2019-01-26T12:46:14.995Z,99853.64
2019-01-26T12:47:22.087Z,99850.33
2019-01-26T12:48:29.158Z,99855.73
2019-01-26T12:49:36.156Z,99849.05
2019-01-26T12:50:42.959Z,99852.84
2019-01-26T12:52:08.668Z,99848.23
2019-01-26T12:53:15.556Z,99849.47
2019-01-26T12:54:22.269Z,99849.05
2019-01-26T12:55:29.347Z,99849.08
2019-01-26T12:56:35.995Z,99850.36
2019-01-26T12:57:43.310Z,99845.68
2019-01-26T12:58:49.971Z,99849.53
2019-01-26T12:59:56.833Z,99846.95
2019-01-26T13:01:03.631Z,99843.13
2019-01-26T13:02:10.387Z,99848.25
2019-01-26T13:03:18.594Z,99847.84
2019-01-26T13:04:26.418Z,99841.48